Time;durP1;ratioP1;P1;durP2;ratioP2;P2;SDS_P1;SDS_P2;PMS_P1;PMS_P2;Temp;Humidity;BMP_temperature;BMP_pressure;BME280_temperature;BME280_humidity;BME280_pressure;Samples;Min_cycle;Max_cycle;Signal;HPM_P1;HPM_P2
2021/12/20 00:00:41;;;;;;;;;21.00;18.00;;;;;-147.17;100.00;50318.41;4954484;28;50956;-56
2021/12/20 00:03:07;;;;;;;;;26.00;22.00;;;;;-147.17;100.00;50277.09;4952617;28;52061;-57
2021/12/20 00:05:32;;;;;;;;;19.50;17.75;;;;;-147.17;100.00;50318.41;4953117;28;51048;-57
2021/12/20 00:07:58;;;;;;;;;29.75;28.00;;;;;-147.17;100.00;50273.16;4953291;28;51245;-58
2021/12/20 00:10:24;;;;;;;;;33.25;27.50;;;;;-147.17;100.00;50300.72;4953540;28;51125;-57
2021/12/20 00:12:49;;;;;;;;;25.50;24.75;;;;;-147.17;100.00;50281.03;4953762;28;52644;-58
2021/12/20 00:15:17;;;;;;;;;28.75;27.25;;;;;-147.17;100.00;50292.84;4953958;28;51103;-58
2021/12/20 00:17:42;;;;;;;;;28.25;23.50;;;;;-147.17;100.00;50294.81;4951600;28;51166;-57
2021/12/20 00:20:08;;;;;;;;;29.50;27.00;;;;;-147.17;100.00;50279.06;4953371;28;50949;-56
2021/12/20 00:22:34;;;;;;;;;27.00;26.25;;;;;-147.17;100.00;50284.97;4933307;28;53131;-56
2021/12/20 00:25:00;;;;;;;;;26.00;25.00;;;;;-147.17;100.00;50275.13;4951313;28;50966;-57
2021/12/20 00:27:26;;;;;;;;;27.75;26.25;;;;;-147.17;100.00;50288.91;4952502;28;51120;-56
2021/12/20 00:29:51;;;;;;;;;23.75;22.75;;;;;-147.17;100.00;50302.69;4951987;28;51090;-56
2021/12/20 00:32:17;;;;;;;;;26.50;23.75;;;;;-147.17;100.00;50269.22;4952292;28;51166;-58
2021/12/20 00:34:44;;;;;;;;;33.25;32.00;;;;;-147.17;100.00;50296.78;4953077;28;51020;-57
2021/12/20 00:42:40;;;;;;;;;24.25;22.50;;;;;-147.17;100.00;50292.84;4953291;28;51187;-58
2021/12/20 00:45:06;;;;;;;;;28.25;24.50;;;;;-147.17;100.00;50316.44;4949480;28;50981;-58
2021/12/20 00:47:32;;;;;;;;;27.75;24.25;;;;;-147.17;100.00;50286.94;4952684;28;51043;-57
2021/12/20 00:49:57;;;;;;;;;28.50;24.75;;;;;-147.17;100.00;50314.47;4953177;28;50819;-57
2021/12/20 00:52:22;;;;;;;;;27.50;23.75;;;;;-147.17;100.00;50304.66;4952375;28;51740;-56
2021/12/20 00:54:48;;;;;;;;;23.50;22.25;;;;;-147.17;100.00;50292.84;4952840;28;50964;-59
2021/12/20 00:57:13;;;;;;;;;25.25;23.75;;;;;-147.17;100.00;50296.78;4952904;28;51315;-57
2021/12/20 00:59:38;;;;;;;;;27.75;24.25;;;;;-147.17;100.00;50288.91;4951466;28;50910;-58
2021/12/20 01:02:04;;;;;;;;;26.25;21.75;;;;;-147.17;100.00;50257.41;4953482;28;51777;-57
2021/12/20 01:04:29;;;;;;;;;21.75;19.75;;;;;-147.17;100.00;50302.69;4954023;28;50889;-58
2021/12/20 01:06:54;;;;;;;;;23.50;21.00;;;;;-147.17;100.00;50292.84;4952708;28;51083;-57
2021/12/20 01:09:20;;;;;;;;;23.00;21.75;;;;;-147.17;100.00;50283.00;4955470;28;51230;-57
2021/12/20 01:11:50;;;;;;;;;23.50;21.00;;;;;-147.17;100.00;50288.91;4955849;28;52785;-57
2021/12/20 01:14:22;;;;;;;;;25.50;24.75;;;;;-147.17;100.00;50308.59;4957330;28;50999;-57
2021/12/20 01:16:48;;;;;;;;;23.50;21.25;;;;;-147.17;100.00;50296.78;4956104;28;50951;-57
2021/12/20 01:19:13;;;;;;;;;22.00;21.00;;;;;-147.17;100.00;50320.38;4957485;28;51109;-57
2021/12/20 01:21:39;;;;;;;;;26.75;25.00;;;;;-147.17;100.00;50273.16;4955959;28;51958;-57
2021/12/20 01:24:05;;;;;;;;;27.75;23.75;;;;;-147.17;100.00;50273.16;4954662;28;51040;-57
2021/12/20 01:26:30;;;;;;;;;22.50;20.75;;;;;-147.17;100.00;50249.53;4956214;28;51210;-57
2021/12/20 01:28:55;;;;;;;;;27.75;23.25;;;;;-147.17;100.00;50296.78;4956366;28;50914;-59
2021/12/20 01:31:22;;;;;;;;;22.75;22.25;;;;;-147.17;100.00;50298.75;4955523;28;52035;-57
2021/12/20 01:33:47;;;;;;;;;25.50;24.25;;;;;-147.17;100.00;50300.72;4956618;28;50992;-57
2021/12/20 01:36:13;;;;;;;;;23.50;22.75;;;;;-147.17;100.00;50312.53;4954455;28;51021;-58
2021/12/20 01:38:38;;;;;;;;;21.75;20.25;;;;;-147.17;100.00;50288.91;4957042;28;50885;-57
2021/12/20 01:41:05;;;;;;;;;26.25;23.00;;;;;-147.17;100.00;50277.09;4955183;28;51376;-58
2021/12/20 01:43:30;;;;;;;;;18.25;17.00;;;;;-147.17;100.00;50298.75;4955133;28;51028;-56
2021/12/20 01:45:55;;;;;;;;;23.00;20.00;;;;;-147.17;100.00;50328.25;4955355;28;51452;-58
2021/12/20 01:48:22;;;;;;;;;24.50;23.50;;;;;-147.17;100.00;50302.69;4956753;28;50981;-58
2021/12/20 01:53:33;;;;;;;;;21.75;19.75;;;;;-147.17;100.00;50273.16;4955563;28;50989;-56
2021/12/20 01:55:59;;;;;;;;;28.75;26.25;;;;;-147.17;100.00;50294.81;4955486;28;51059;-57
2021/12/20 01:58:27;;;;;;;;;25.50;23.25;;;;;-147.17;100.00;50281.03;4954904;28;51313;-57
2021/12/20 02:03:38;;;;;;;;;31.75;27.00;;;;;-147.17;100.00;50294.81;4949445;28;51200;-57
2021/12/20 02:06:09;;;;;;;;;24.25;21.00;;;;;-147.17;100.00;50292.84;4955440;28;51075;-56
2021/12/20 02:08:34;;;;;;;;;30.25;27.00;;;;;-147.17;100.00;50310.56;4955633;28;51260;-56
2021/12/20 02:11:12;;;;;;;;;22.25;22.00;;;;;-147.17;100.00;50294.81;4955135;28;51680;-58
2021/12/20 02:13:40;;;;;;;;;29.75;25.75;;;;;-147.17;100.00;50277.09;4951638;28;51074;-57
2021/12/20 02:16:05;;;;;;;;;27.00;25.75;;;;;-147.17;100.00;50308.59;4955281;28;50881;-58
2021/12/20 02:18:32;;;;;;;;;29.75;27.25;;;;;-147.17;100.00;50284.97;4956379;28;51324;-57
2021/12/20 02:20:59;;;;;;;;;29.00;27.50;;;;;-147.17;100.00;50296.78;4954811;28;52179;-58
2021/12/20 02:23:25;;;;;;;;;34.25;33.50;;;;;-147.17;100.00;50284.97;4955665;28;50972;-59
2021/12/20 02:25:50;;;;;;;;;44.25;37.00;;;;;-147.17;100.00;50310.56;4954301;28;51120;-56
2021/12/20 02:28:19;;;;;;;;;36.75;32.50;;;;;-147.17;100.00;50294.81;4955833;28;50846;-56
2021/12/20 02:38:44;;;;;;;;;46.25;39.50;;;;;-147.17;100.00;50300.72;4955886;28;51015;-58
2021/12/20 02:41:13;;;;;;;;;45.50;39.25;;;;;-147.17;100.00;50235.75;4954477;28;52022;-57
2021/12/20 02:43:43;;;;;;;;;42.75;36.25;;;;;-147.17;100.00;50308.59;4938517;28;50991;-58
2021/12/20 02:49:04;;;;;;;;;36.50;33.50;;;;;-147.17;100.00;50275.13;4956271;28;51102;-56
2021/12/20 02:51:30;;;;;;;;;32.75;29.00;;;;;-147.17;100.00;50294.81;4953851;28;51166;-57
2021/12/20 02:53:57;;;;;;;;;39.25;36.75;;;;;-147.17;100.00;50283.00;4955592;28;50945;-57
2021/12/20 02:56:23;;;;;;;;;44.50;34.75;;;;;-147.17;100.00;50306.63;4954623;28;51206;-57
2021/12/20 02:58:48;;;;;;;;;39.75;37.00;;;;;-147.17;100.00;50277.09;4955401;28;51288;-56
2021/12/20 03:01:15;;;;;;;;;44.75;39.75;;;;;-147.17;100.00;50257.41;4954357;28;50893;-56
2021/12/20 03:03:40;;;;;;;;;35.00;32.50;;;;;-147.17;100.00;50300.72;4955568;28;50899;-57
2021/12/20 03:06:20;;;;;;;;;31.50;30.75;;;;;-147.17;100.00;50312.53;4954411;28;51228;-58
2021/12/20 03:08:49;;;;;;;;;41.00;37.50;;;;;-147.17;100.00;50322.34;4955586;28;50952;-57
2021/12/20 03:11:15;;;;;;;;;35.00;29.00;;;;;-147.17;100.00;50302.69;4955217;28;50902;-57
2021/12/20 03:13:43;;;;;;;;;38.75;33.00;;;;;-147.17;100.00;50267.25;4954897;28;51345;-57
2021/12/20 03:16:09;;;;;;;;;39.75;36.00;;;;;-147.17;100.00;50281.03;4953620;28;51209;-57
2021/12/20 03:18:34;;;;;;;;;36.25;33.50;;;;;-147.17;100.00;50286.94;4955306;28;51128;-57
2021/12/20 03:20:59;;;;;;;;;29.25;19.25;;;;;-147.17;100.00;50277.09;4954008;28;51601;-57
2021/12/20 03:23:25;;;;;;;;;34.50;33.75;;;;;-147.17;100.00;50300.72;4954462;28;51011;-57
2021/12/20 03:25:50;;;;;;;;;35.00;32.25;;;;;-147.17;100.00;50318.41;4954739;28;51103;-58
2021/12/20 03:28:16;;;;;;;;;43.50;36.50;;;;;-147.17;100.00;50273.16;4954277;28;50866;-58
2021/12/20 03:30:41;;;;;;;;;36.25;30.25;;;;;-147.17;100.00;50294.81;4954643;28;51985;-57
2021/12/20 03:33:06;;;;;;;;;40.00;35.25;;;;;-147.17;100.00;50298.75;4953358;28;51020;-57
2021/12/20 03:35:32;;;;;;;;;37.00;34.50;;;;;-147.17;100.00;50277.09;4937465;28;51102;-57
2021/12/20 03:37:57;;;;;;;;;42.25;34.00;;;;;-147.17;100.00;50296.78;4953271;28;50924;-57
2021/12/20 03:40:23;;;;;;;;;31.50;30.50;;;;;-147.17;100.00;50302.69;4953526;28;51916;-57
2021/12/20 03:42:48;;;;;;;;;38.50;33.00;;;;;-147.17;100.00;50308.59;4954215;28;51225;-58
2021/12/20 03:45:15;;;;;;;;;34.50;29.00;;;;;-147.17;100.00;50271.19;4954938;28;51032;-58
2021/12/20 03:47:41;;;;;;;;;37.00;34.50;;;;;-147.17;100.00;50281.03;4953365;28;51293;-57
2021/12/20 03:50:08;;;;;;;;;37.25;32.00;;;;;-147.17;100.00;50312.53;4954624;28;50999;-57
2021/12/20 03:52:33;;;;;;;;;40.75;33.50;;;;;-147.17;100.00;50320.38;4936431;28;51087;-57
2021/12/20 03:54:59;;;;;;;;;37.75;35.50;;;;;-147.17;100.00;50304.66;4954613;28;51100;-57
2021/12/20 03:57:25;;;;;;;;;37.50;35.50;;;;;-147.17;100.00;50284.97;4944256;28;50990;-57
2021/12/20 03:59:52;;;;;;;;;39.00;35.25;;;;;-147.17;100.00;50302.69;4954642;28;51889;-57
2021/12/20 04:02:20;;;;;;;;;42.00;36.25;;;;;-147.17;100.00;50320.38;4953319;28;51126;-57
2021/12/20 04:04:45;;;;;;;;;37.50;33.00;;;;;-147.17;100.00;50324.31;4953218;28;50938;-56
2021/12/20 04:07:11;;;;;;;;;30.25;28.00;;;;;-147.17;100.00;50312.53;4953471;28;50988;-57
2021/12/20 04:09:36;;;;;;;;;32.25;28.50;;;;;-147.17;100.00;50338.09;4954252;28;53111;-56
2021/12/20 04:12:02;;;;;;;;;39.75;34.75;;;;;-147.17;100.00;50304.66;4954438;28;51036;-56
2021/12/20 04:14:27;;;;;;;;;37.50;32.00;;;;;-147.17;100.00;50322.34;4954494;28;51164;-57
2021/12/20 04:16:52;;;;;;;;;36.50;30.50;;;;;-147.17;100.00;50304.66;4953873;28;50984;-56
2021/12/20 04:19:18;;;;;;;;;34.25;28.00;;;;;-147.17;100.00;50304.66;4953550;28;51036;-56
2021/12/20 04:21:43;;;;;;;;;31.75;27.25;;;;;-147.17;100.00;50320.38;4954294;28;51069;-56
2021/12/20 04:24:08;;;;;;;;;37.75;32.00;;;;;-147.17;100.00;50328.25;4954140;28;51557;-56
2021/12/20 04:26:34;;;;;;;;;31.75;29.25;;;;;-147.17;100.00;50300.72;4953653;28;51266;-55
2021/12/20 04:28:59;;;;;;;;;38.50;33.25;;;;;-147.17;100.00;50304.66;4953471;28;51125;-56
2021/12/20 04:31:25;;;;;;;;;38.75;34.00;;;;;-147.17;100.00;50310.56;4954033;28;51077;-56
2021/12/20 04:33:50;;;;;;;;;38.25;35.00;;;;;-147.17;100.00;50304.66;4954074;28;50968;-57
2021/12/20 04:36:15;;;;;;;;;31.00;25.50;;;;;-147.17;100.00;50308.59;4953078;28;51115;-56
2021/12/20 04:38:41;;;;;;;;;39.75;34.50;;;;;-147.17;100.00;50284.97;4952925;28;52015;-57
2021/12/20 04:41:07;;;;;;;;;37.25;35.00;;;;;-147.17;100.00;50277.09;4954067;28;50956;-57
2021/12/20 04:43:32;;;;;;;;;19.75;19.75;;;;;-147.17;100.00;50284.97;4951888;28;51132;-56
2021/12/20 04:45:58;;;;;;;;;43.75;39.00;;;;;-147.17;100.00;50308.59;4949276;28;51177;-58
2021/12/20 04:48:23;;;;;;;;;37.50;28.50;;;;;-147.17;100.00;50277.09;4953689;28;50959;-56
2021/12/20 04:50:48;;;;;;;;;38.50;36.00;;;;;-147.17;100.00;50269.22;4953699;28;51202;-56
2021/12/20 04:53:14;;;;;;;;;40.75;37.00;;;;;-147.17;100.00;50296.78;4952033;28;51470;-56
2021/12/20 04:55:39;;;;;;;;;39.25;35.00;;;;;-147.17;100.00;50241.66;4953088;28;51078;-56
2021/12/20 04:58:05;;;;;;;;;40.00;35.00;;;;;-147.17;100.00;50267.25;4952226;28;52596;-58
2021/12/20 05:00:34;;;;;;;;;44.50;39.50;;;;;-147.17;100.00;50294.81;4954498;28;51240;-58
2021/12/20 05:03:00;;;;;;;;;37.25;33.50;;;;;-147.17;100.00;50273.16;4952973;28;51028;-56
2021/12/20 05:05:28;;;;;;;;;38.50;33.25;;;;;-147.17;100.00;50298.75;4954105;28;50905;-58
2021/12/20 05:07:54;;;;;;;;;37.50;33.75;;;;;-147.17;100.00;50284.97;4951158;28;52387;-58
2021/12/20 05:10:52;;;;;;;;;35.25;30.00;;;;;-147.17;100.00;50277.09;4953692;28;51174;-56
2021/12/20 05:13:13;;;;;;;;;40.00;36.50;;;;;-147.17;100.00;50308.59;4950303;28;51509;-57
2021/12/20 05:15:39;;;;;;;;;36.50;32.25;;;;;-147.17;100.00;50283.00;4953416;28;51092;-57
2021/12/20 05:18:08;;;;;;;;;42.50;36.75;;;;;-147.17;100.00;50300.72;4951816;28;51168;-57
2021/12/20 05:20:34;;;;;;;;;32.25;30.25;;;;;-147.17;100.00;50275.13;4953518;28;51080;-57
2021/12/20 05:23:01;;;;;;;;;33.25;30.50;;;;;-147.17;100.00;50300.72;4950681;28;51232;-56
2021/12/20 05:25:27;;;;;;;;;35.25;31.00;;;;;-147.17;100.00;50290.88;4952297;28;51327;-58
2021/12/20 05:27:53;;;;;;;;;30.00;25.25;;;;;-147.17;100.00;50304.66;4951837;28;51823;-58
2021/12/20 05:30:19;;;;;;;;;32.25;29.75;;;;;-147.17;100.00;50296.78;4953654;28;51051;-57
2021/12/20 05:32:44;;;;;;;;;38.75;32.50;;;;;-147.17;100.00;50273.16;4952924;28;51285;-58
2021/12/20 05:35:13;;;;;;;;;36.75;32.75;;;;;-147.17;100.00;50300.72;4951882;28;50994;-58
2021/12/20 05:37:39;;;;;;;;;25.75;22.75;;;;;-147.17;100.00;50271.19;4952574;28;51115;-57
2021/12/20 05:40:07;;;;;;;;;37.75;32.50;;;;;-147.17;100.00;50281.03;4952274;28;50979;-56
2021/12/20 05:42:33;;;;;;;;;31.00;27.75;;;;;-147.17;100.00;50296.78;4951921;28;51251;-57
2021/12/20 05:44:58;;;;;;;;;31.25;28.25;;;;;-147.17;100.00;50269.22;4953267;28;51274;-57
2021/12/20 05:47:24;;;;;;;;;29.00;27.25;;;;;-147.17;100.00;50292.84;4951961;28;51913;-56
2021/12/20 05:49:50;;;;;;;;;31.50;27.00;;;;;-147.17;100.00;50284.97;4953013;28;51016;-56
2021/12/20 05:52:15;;;;;;;;;31.25;29.75;;;;;-147.17;100.00;50294.81;4952424;28;50899;-56
2021/12/20 05:54:41;;;;;;;;;30.75;26.75;;;;;-147.17;100.00;50292.84;4952301;28;51327;-56
2021/12/20 05:57:06;;;;;;;;;33.50;28.00;;;;;-147.17;100.00;50279.06;4954268;28;51206;-57
2021/12/20 05:59:32;;;;;;;;;27.25;24.50;;;;;-147.17;100.00;50257.41;4954469;28;51141;-58
2021/12/20 06:01:58;;;;;;;;;26.75;26.25;;;;;-147.17;100.00;50318.41;4959398;28;51300;-58
2021/12/20 06:04:23;;;;;;;;;33.00;29.25;;;;;-147.17;100.00;50314.47;4958442;28;50996;-58
2021/12/20 06:06:49;;;;;;;;;32.50;26.25;;;;;-147.17;100.00;50322.34;4966279;28;50980;-57
2021/12/20 06:09:14;;;;;;;;;26.00;22.00;;;;;-147.17;100.00;50288.91;4958344;28;50979;-57
2021/12/20 06:11:39;;;;;;;;;31.00;29.00;;;;;-147.17;100.00;50296.78;4956088;28;51126;-56
2021/12/20 06:14:05;;;;;;;;;30.75;25.75;;;;;-147.17;100.00;50281.03;4955514;28;50987;-57
2021/12/20 06:16:30;;;;;;;;;33.75;28.50;;;;;-147.17;100.00;50281.03;4954800;28;53967;-57
2021/12/20 06:18:56;;;;;;;;;30.00;25.25;;;;;-147.17;100.00;50267.25;4960019;28;51122;-57
2021/12/20 06:21:21;;;;;;;;;29.25;27.00;;;;;-147.17;100.00;50318.41;4956162;28;50889;-57
2021/12/20 06:23:47;;;;;;;;;32.00;29.50;;;;;-147.17;100.00;50292.84;4956107;28;50906;-57
2021/12/20 06:26:12;;;;;;;;;29.50;26.25;;;;;-147.17;100.00;50318.41;4955747;28;51729;-57
2021/12/20 06:28:38;;;;;;;;;29.00;23.50;;;;;-147.17;100.00;50298.75;4955257;28;50892;-57
2021/12/20 06:31:03;;;;;;;;;26.25;25.75;;;;;-147.17;100.00;50332.19;4954995;28;51144;-58
2021/12/20 06:33:29;;;;;;;;;23.50;21.25;;;;;-147.17;100.00;50296.78;4955937;28;50839;-57
2021/12/20 06:35:54;;;;;;;;;21.50;20.25;;;;;-147.17;100.00;50294.81;4955454;28;52032;-62
2021/12/20 06:38:21;;;;;;;;;29.25;25.25;;;;;-147.17;100.00;50310.56;4955462;28;51211;-57
2021/12/20 06:40:48;;;;;;;;;23.50;21.00;;;;;-147.17;100.00;50275.13;4955711;28;51171;-57
2021/12/20 06:43:14;;;;;;;;;23.00;19.25;;;;;-147.17;100.00;50304.66;4955426;28;51146;-57
2021/12/20 06:45:39;;;;;;;;;22.75;20.75;;;;;-147.17;100.00;50340.06;4954128;28;54069;-55
2021/12/20 06:48:05;;;;;;;;;19.50;17.75;;;;;-147.17;100.00;50318.41;4945092;28;51181;-56
2021/12/20 06:50:31;;;;;;;;;25.75;21.75;;;;;-147.17;100.00;50302.69;4954993;28;51032;-56
2021/12/20 06:52:57;;;;;;;;;27.25;23.00;;;;;-147.17;100.00;50340.06;4955438;28;50980;-57
2021/12/20 06:55:23;;;;;;;;;25.50;23.50;;;;;-147.17;100.00;50312.53;4954760;28;51857;-57
2021/12/20 06:57:49;;;;;;;;;26.25;21.50;;;;;-147.17;100.00;50292.84;4955099;28;51341;-56
2021/12/20 07:00:15;;;;;;;;;23.25;20.00;;;;;-147.17;100.00;50277.09;4955294;28;51053;-57
2021/12/20 07:02:40;;;;;;;;;26.75;24.25;;;;;-147.17;100.00;50320.38;4955545;28;50920;-57
2021/12/20 07:05:06;;;;;;;;;27.00;22.75;;;;;-147.17;100.00;50316.44;4955040;28;51670;-57
2021/12/20 07:07:31;;;;;;;;;22.50;19.00;;;;;-147.17;100.00;50332.19;4954014;28;51470;-56
2021/12/20 07:09:57;;;;;;;;;28.00;22.50;;;;;-147.17;100.00;50304.66;4952404;28;50992;-56
2021/12/20 07:12:23;;;;;;;;;24.25;23.25;;;;;-147.17;100.00;50316.44;4953629;28;51387;-57
2021/12/20 07:14:50;;;;;;;;;29.50;25.00;;;;;-147.17;100.00;50300.72;4966820;28;51110;-57
2021/12/20 07:17:17;;;;;;;;;23.25;20.25;;;;;-147.17;100.00;50312.53;4955158;28;51012;-56
2021/12/20 07:19:43;;;;;;;;;19.50;16.00;;;;;-147.17;100.00;50298.75;4954847;28;51061;-57
2021/12/20 07:22:08;;;;;;;;;27.75;25.50;;;;;-147.17;100.00;50361.72;4948171;28;51091;-57
2021/12/20 07:24:33;;;;;;;;;33.75;27.00;;;;;-147.17;100.00;50292.84;4949176;28;51729;-57
2021/12/20 07:26:59;;;;;;;;;29.00;23.00;;;;;-147.17;100.00;50316.44;4959035;28;50945;-56
2021/12/20 07:29:24;;;;;;;;;24.25;23.75;;;;;-147.17;100.00;50306.63;4953793;28;51347;-56
2021/12/20 07:31:50;;;;;;;;;23.50;19.75;;;;;-147.17;100.00;50288.91;4969309;28;51219;-56
2021/12/20 07:34:15;;;;;;;;;19.25;15.25;;;;;-147.17;100.00;50292.84;4953572;28;50984;-57
2021/12/20 07:36:41;;;;;;;;;20.00;17.50;;;;;-147.17;100.00;50284.97;4956963;28;51192;-56
2021/12/20 07:39:07;;;;;;;;;22.00;20.75;;;;;-147.17;100.00;50284.97;4953812;28;51303;-57
2021/12/20 07:41:32;;;;;;;;;24.25;22.25;;;;;-147.17;100.00;50308.59;4955087;28;51119;-57
2021/12/20 07:43:58;;;;;;;;;27.00;24.25;;;;;-147.17;100.00;50290.88;4952898;28;52263;-58
2021/12/20 07:46:23;;;;;;;;;22.50;20.50;;;;;-147.17;100.00;50304.66;4964665;28;51244;-57
2021/12/20 07:48:49;;;;;;;;;17.50;14.00;;;;;-147.17;100.00;50281.03;4957734;28;50942;-57
2021/12/20 07:51:15;;;;;;;;;25.50;24.25;;;;;-147.17;100.00;50332.19;4954387;28;51304;-57
2021/12/20 07:53:41;;;;;;;;;22.00;20.75;;;;;-147.17;100.00;50288.91;4953240;28;52222;-59
2021/12/20 07:56:07;;;;;;;;;25.75;22.25;;;;;-147.17;100.00;50320.38;4954561;28;50933;-58
2021/12/20 07:58:32;;;;;;;;;23.75;22.00;;;;;-147.17;100.00;50277.09;4953934;28;51122;-58
2021/12/20 08:00:58;;;;;;;;;26.50;22.00;;;;;-147.17;100.00;50332.19;4952894;28;51203;-58
2021/12/20 08:03:24;;;;;;;;;25.25;23.75;;;;;-147.17;100.00;50347.94;4953372;28;51175;-58
2021/12/20 08:05:50;;;;;;;;;27.00;26.00;;;;;-147.17;100.00;50316.44;4954192;28;50975;-58
2021/12/20 08:08:16;;;;;;;;;30.50;27.00;;;;;-147.17;100.00;50296.78;4953793;28;51175;-57
2021/12/20 08:10:41;;;;;;;;;30.25;25.50;;;;;-147.17;100.00;50320.38;4954356;28;51002;-59
2021/12/20 08:13:08;;;;;;;;;28.00;25.25;;;;;-147.17;100.00;50298.75;4953267;28;52135;-57
2021/12/20 08:15:33;;;;;;;;;25.00;21.00;;;;;-147.17;100.00;50324.31;4954282;28;51096;-58
2021/12/20 08:17:59;;;;;;;;;31.75;26.75;;;;;-147.17;100.00;50312.53;4953873;28;50983;-59
2021/12/20 08:20:25;;;;;;;;;27.00;25.00;;;;;-147.17;100.00;50292.84;4954301;28;51169;-58
2021/12/20 08:22:51;;;;;;;;;23.00;20.50;;;;;-147.17;100.00;50336.13;4953755;28;51913;-58
2021/12/20 08:25:18;;;;;;;;;26.50;24.00;;;;;-147.17;100.00;50318.41;4954168;28;51424;-58
2021/12/20 08:27:45;;;;;;;;;34.25;26.50;;;;;-147.17;100.00;50347.94;4953392;28;50876;-58
2021/12/20 08:30:11;;;;;;;;;17.75;16.50;;;;;-147.17;100.00;50326.28;4954170;28;51112;-58
2021/12/20 08:32:36;;;;;;;;;27.25;26.25;;;;;-147.17;100.00;50320.38;4952233;28;51960;-57
2021/12/20 08:35:03;;;;;;;;;32.75;29.75;;;;;-147.17;100.00;50338.09;4954006;28;51075;-58
2021/12/20 08:37:29;;;;;;;;;32.50;27.25;;;;;-147.17;100.00;50281.03;4953597;28;51220;-58
2021/12/20 08:39:54;;;;;;;;;22.00;21.25;;;;;-147.17;100.00;50300.72;4954176;28;50919;-58
2021/12/20 08:42:20;;;;;;;;;26.25;25.50;;;;;-147.17;100.00;50318.41;4953113;28;52150;-58
2021/12/20 08:44:46;;;;;;;;;27.25;26.00;;;;;-147.17;100.00;50326.28;4953999;28;51350;-57
2021/12/20 08:47:12;;;;;;;;;33.00;27.25;;;;;-147.17;100.00;50320.38;4953723;28;50854;-58
2021/12/20 08:49:37;;;;;;;;;28.50;28.00;;;;;-147.17;100.00;50336.13;4950778;28;51112;-57
2021/12/20 08:52:04;;;;;;;;;29.00;27.75;;;;;-147.17;100.00;50355.81;4953469;28;51767;-57
2021/12/20 08:54:30;;;;;;;;;31.00;25.75;;;;;-147.17;100.00;50344.00;4952220;28;51044;-58
2021/12/20 08:56:57;;;;;;;;;32.75;26.75;;;;;-147.17;100.00;50328.25;4953100;28;50917;-58
2021/12/20 08:59:22;;;;;;;;;35.25;28.50;;;;;-147.17;100.00;50367.63;4953590;28;50985;-58
2021/12/20 09:01:48;;;;;;;;;27.75;26.50;;;;;-147.17;100.00;50359.75;4953274;28;51126;-58
2021/12/20 09:04:13;;;;;;;;;26.50;22.75;;;;;-147.17;100.00;50345.97;4953267;28;51236;-58
2021/12/20 09:06:41;;;;;;;;;33.50;28.75;;;;;-147.17;100.00;50328.25;4953404;28;51128;-58
2021/12/20 09:09:09;;;;;;;;;30.25;25.25;;;;;-147.17;100.00;50318.41;4953405;28;51075;-57
2021/12/20 09:11:34;;;;;;;;;25.25;22.00;;;;;-147.17;100.00;50347.94;4953173;28;51862;-60
2021/12/20 09:14:00;;;;;;;;;29.75;24.25;;;;;-147.17;100.00;50351.88;4951682;28;51002;-57
2021/12/20 09:16:25;;;;;;;;;27.50;23.75;;;;;-147.17;100.00;50359.75;4953629;28;50921;-58
2021/12/20 09:18:51;;;;;;;;;23.25;21.50;;;;;-147.17;100.00;50320.38;4953589;28;51197;-57
2021/12/20 09:21:16;;;;;;;;;29.25;26.75;;;;;-147.17;100.00;50318.41;4953249;28;51713;-57
2021/12/20 09:23:43;;;;;;;;;29.25;26.00;;;;;-147.17;100.00;50336.13;4953837;28;51088;-57
2021/12/20 09:26:08;;;;;;;;;34.00;26.00;;;;;-147.17;100.00;50338.09;4952617;28;51011;-59
2021/12/20 09:28:34;;;;;;;;;29.75;26.25;;;;;-147.17;100.00;50338.09;4952848;28;51407;-58
2021/12/20 09:31:01;;;;;;;;;22.00;21.00;;;;;-147.17;100.00;50336.13;4954910;28;51857;-58
2021/12/20 09:33:27;;;;;;;;;26.50;23.75;;;;;-147.17;100.00;50345.97;4963127;28;51069;-58
2021/12/20 09:35:53;;;;;;;;;32.75;29.25;;;;;-147.17;100.00;50338.09;4958834;28;51159;-59
2021/12/20 09:38:20;;;;;;;;;31.00;29.25;;;;;-147.17;100.00;50328.25;4955906;28;50879;-58
2021/12/20 09:43:33;;;;;;;;;27.25;27.00;;;;;-147.17;100.00;50336.13;4955733;28;51169;-58
2021/12/20 09:45:59;;;;;;;;;31.50;28.50;;;;;-147.17;100.00;50320.38;4954450;28;51217;-59
2021/12/20 09:48:25;;;;;;;;;34.00;31.25;;;;;-147.17;100.00;50320.38;4955750;28;51061;-59
2021/12/20 09:50:51;;;;;;;;;25.25;24.25;;;;;-147.17;100.00;50328.25;4954251;28;51893;-59
2021/12/20 09:53:17;;;;;;;;;33.25;29.75;;;;;-147.17;100.00;50338.09;4954412;28;50840;-58
2021/12/20 09:55:47;;;;;;;;;31.50;25.00;;;;;-147.17;100.00;50345.97;4955517;28;51070;-58
2021/12/20 09:58:13;;;;;;;;;26.50;23.50;;;;;-147.17;100.00;50320.38;4956045;28;51143;-58
2021/12/20 10:00:39;;;;;;;;;32.50;29.00;;;;;-147.17;100.00;50351.88;4955227;28;51187;-57
2021/12/20 10:03:05;;;;;;;;;27.00;25.25;;;;;-147.17;100.00;50367.63;4955697;28;51043;-57
2021/12/20 10:05:32;;;;;;;;;31.25;28.00;;;;;-147.17;100.00;50344.00;4954358;28;51172;-58
2021/12/20 10:07:58;;;;;;;;;17.00;16.25;;;;;-147.17;100.00;50324.31;4955809;28;50886;-58
2021/12/20 10:10:44;;;;;;;;;33.25;28.75;;;;;-147.17;100.00;50330.22;4955045;28;51988;-58
2021/12/20 10:13:21;;;;;;;;;24.50;23.00;;;;;-147.17;100.00;50342.03;4953946;28;51030;-58
2021/12/20 10:15:46;;;;;;;;;43.00;33.50;;;;;-147.17;100.00;50344.00;4954364;28;51045;-58
2021/12/20 10:18:14;;;;;;;;;20.75;17.25;;;;;-147.17;100.00;50332.19;4955919;28;51283;-57
2021/12/20 10:20:40;;;;;;;;;30.50;26.00;;;;;-147.17;100.00;50322.34;4955400;28;51859;-58
2021/12/20 10:23:14;;;;;;;;;13.25;13.25;;;;;-147.17;100.00;50344.00;4955260;28;51016;-59
2021/12/20 10:25:42;;;;;;;;;13.00;10.50;;;;;-147.17;100.00;50334.16;4953929;28;51105;-58
2021/12/20 10:28:16;;;;;;;;;26.75;23.75;;;;;-147.17;100.00;50314.47;4953380;28;51160;-58
2021/12/20 10:30:44;;;;;;;;;25.75;25.00;;;;;-147.17;100.00;50351.88;4955183;28;51272;-58
2021/12/20 10:33:19;;;;;;;;;28.00;26.50;;;;;-147.17;100.00;50385.34;4954891;28;51191;-58
2021/12/20 10:35:56;;;;;;;;;20.50;15.25;;;;;-147.17;100.00;50357.78;4955583;28;51076;-58
2021/12/20 10:38:38;;;;;;;;;21.75;21.50;;;;;-147.17;100.00;50387.31;4955443;28;51410;-58
2021/12/20 10:41:12;;;;;;;;;21.75;21.50;;;;;-147.17;100.00;50381.41;4953833;28;51718;-58
2021/12/20 10:43:51;;;;;;;;;23.75;22.00;;;;;-147.17;100.00;50332.19;4954560;28;50980;-58
2021/12/20 10:46:18;;;;;;;;;30.75;25.00;;;;;-147.17;100.00;50361.72;4955006;28;51089;-57
2021/12/20 10:48:46;;;;;;;;;25.50;21.50;;;;;-147.17;100.00;50340.06;4950114;28;51289;-58
2021/12/20 10:51:42;;;;;;;;;25.00;23.75;;;;;-147.17;100.00;50344.00;4950610;28;51901;-57
2021/12/20 10:54:10;;;;;;;;;22.25;20.75;;;;;-147.17;100.00;50347.94;4933888;28;50890;-58
2021/12/20 10:56:52;;;;;;;;;47.75;39.75;;;;;-147.17;100.00;50359.75;4935242;28;51189;-57
2021/12/20 10:59:21;;;;;;;;;24.25;22.75;;;;;-147.17;100.00;50383.38;4945594;28;50942;-57
2021/12/20 11:02:43;;;;;;;;;26.75;24.75;;;;;-147.17;100.00;50312.53;4954056;28;51944;-59
2021/12/20 11:04:50;;;;;;;;;19.75;17.50;;;;;-147.17;100.00;50336.13;4953443;28;51135;-58
2021/12/20 11:09:50;;;;;;;;;15.50;15.00;;;;;-147.17;100.00;50379.44;4954498;28;51028;-58
2021/12/20 11:12:22;;;;;;;;;13.25;12.25;;;;;-147.17;100.00;50407.00;4953720;28;51812;-57
2021/12/20 11:14:52;;;;;;;;;16.00;15.25;;;;;-147.17;100.00;50383.38;4954474;28;51093;-58
2021/12/20 11:17:20;;;;;;;;;13.75;13.25;;;;;-147.17;100.00;50353.84;4954407;28;51003;-57
2021/12/20 11:19:48;;;;;;;;;16.50;12.75;;;;;-147.17;100.00;50363.69;4954786;28;51211;-57